Time;durP1;ratioP1;P1;durP2;ratioP2;P2;SDS_P1;SDS_P2;PMS_P1;PMS_P2;Temp;Humidity;BMP_temperature;BMP_pressure;BME280_temperature;BME280_humidity;BME280_pressure;Samples;Min_cycle;Max_cycle;Signal;HPM_P1;HPM_P2
2022/01/10 00:00:17;;;;;;;18.63;3.97;;;3.20;99.90;;;;;;5081552;28;20039;-76
2022/01/10 00:02:45;;;;;;;23.02;4.45;;;3.10;99.90;;;;;;5112131;27;20035;-76
2022/01/10 00:05:11;;;;;;;23.42;4.63;;;3.10;99.90;;;;;;5079911;28;20105;-76
2022/01/10 00:07:38;;;;;;;21.33;4.20;;;3.10;99.90;;;;;;5081766;28;20043;-76
2022/01/10 00:10:04;;;;;;;10.40;3.95;;;3.00;99.90;;;;;;5084659;28;20421;-76
2022/01/10 00:12:29;;;;;;;22.88;5.45;;;3.00;99.90;;;;;;5083721;28;20135;-76
2022/01/10 00:14:55;;;;;;;23.08;5.43;;;2.90;99.90;;;;;;5100417;28;20179;-76
2022/01/10 00:17:21;;;;;;;22.02;5.32;;;3.10;99.90;;;;;;5083549;28;20036;-76
2022/01/10 00:19:46;;;;;;;16.63;4.82;;;2.90;99.90;;;;;;5113447;27;20114;-76
2022/01/10 00:22:12;;;;;;;20.58;5.50;;;2.90;99.90;;;;;;5082324;28;20045;-76
2022/01/10 00:24:38;;;;;;;19.77;4.78;;;2.80;99.90;;;;;;5080115;28;20039;-76
2022/01/10 00:27:04;;;;;;;22.42;5.93;;;2.80;99.90;;;;;;5085797;28;20574;-76
2022/01/10 00:29:30;;;;;;;20.27;4.32;;;2.80;99.90;;;;;;5112865;27;20036;-76
2022/01/10 00:31:57;;;;;;;16.45;4.47;;;2.80;99.90;;;;;;5082930;28;20047;-76
2022/01/10 00:34:24;;;;;;;18.38;4.63;;;2.80;99.90;;;;;;5081193;28;20097;-76
2022/01/10 00:36:49;;;;;;;24.13;4.50;;;2.70;99.90;;;;;;5084429;28;20032;-76
2022/01/10 00:39:15;;;;;;;22.48;4.53;;;2.70;99.90;;;;;;5112040;27;20390;-76
2022/01/10 00:41:41;;;;;;;15.93;4.35;;;2.70;99.90;;;;;;5087900;28;20068;-76
2022/01/10 00:44:09;;;;;;;18.63;4.38;;;2.60;99.90;;;;;;5087126;28;20063;-76
2022/01/10 00:46:34;;;;;;;22.23;4.80;;;2.60;99.90;;;;;;5088123;28;20486;-76
2022/01/10 00:49:00;;;;;;;17.58;4.47;;;2.60;99.90;;;;;;5089106;28;20044;-75
2022/01/10 00:51:26;;;;;;;22.42;4.95;;;2.60;99.90;;;;;;5088110;28;20123;-76
2022/01/10 00:53:52;;;;;;;18.98;3.67;;;2.60;99.90;;;;;;5088255;28;20497;-76
2022/01/10 00:56:18;;;;;;;12.43;3.65;;;2.50;99.90;;;;;;5085360;28;20540;-76
2022/01/10 00:58:44;;;;;;;18.13;4.95;;;2.40;99.90;;;;;;5088888;28;20040;-76
2022/01/10 01:01:10;;;;;;;13.27;3.67;;;2.30;99.90;;;;;;5083687;28;20093;-76
2022/01/10 01:03:37;;;;;;;15.13;3.00;;;2.20;99.90;;;;;;5087997;28;20086;-76
2022/01/10 01:06:03;;;;;;;20.85;4.05;;;2.20;99.90;;;;;;5085240;28;20124;-76
2022/01/10 01:08:31;;;;;;;17.30;4.05;;;2.10;99.90;;;;;;5091650;28;20081;-76
2022/01/10 01:11:19;;;;;;;14.20;3.92;;;2.20;99.90;;;;;;5115967;27;20046;-76
2022/01/10 01:13:55;;;;;;;17.60;4.63;;;2.20;99.90;;;;;;5091420;28;20105;-76
2022/01/10 01:19:51;;;;;;;11.77;3.50;;;2.10;99.90;;;;;;5112816;27;20078;-76
2022/01/10 01:24:01;;;;;;;19.95;5.60;;;2.10;99.90;;;;;;5090069;28;20048;-76
2022/01/10 01:24:56;;;;;;;22.85;5.55;;;2.10;99.90;;;;;;5088418;28;20497;-76
2022/01/10 01:27:22;;;;;;;18.17;5.28;;;2.10;99.90;;;;;;5093235;28;20040;-76
2022/01/10 01:29:48;;;;;;;15.07;4.68;;;2.00;99.90;;;;;;5118662;27;20032;-75
2022/01/10 01:32:13;;;;;;;14.07;4.05;;;2.10;99.90;;;;;;5086637;28;20039;-75
2022/01/10 01:34:39;;;;;;;17.67;3.38;;;2.00;99.90;;;;;;5087780;28;20044;-76
2022/01/10 01:37:06;;;;;;;20.48;4.53;;;1.90;99.90;;;;;;5080826;28;20131;-76
2022/01/10 01:39:32;;;;;;;13.57;3.85;;;1.80;99.90;;;;;;5085950;28;20068;-76
2022/01/10 01:42:05;;;;;;;8.43;3.00;;;1.70;99.90;;;;;;5087028;28;20047;-76
2022/01/10 01:44:32;;;;;;;13.43;3.08;;;1.60;99.90;;;;;;5090687;28;20051;-75
2022/01/10 01:46:58;;;;;;;12.73;3.17;;;1.50;99.90;;;;;;5079233;28;20495;-76
2022/01/10 01:49:24;;;;;;;12.63;3.95;;;1.50;99.90;;;;;;5079481;28;20043;-76
2022/01/10 01:51:50;;;;;;;19.95;5.43;;;1.50;99.90;;;;;;5082040;28;20084;-76
2022/01/10 01:54:17;;;;;;;17.10;5.28;;;1.50;99.90;;;;;;5088948;28;20039;-76
2022/01/10 01:56:43;;;;;;;17.67;5.50;;;1.50;99.90;;;;;;5085612;28;20078;-76
2022/01/10 01:59:09;;;;;;;16.42;5.63;;;1.50;99.90;;;;;;5087257;28;20697;-76
2022/01/10 02:01:35;;;;;;;25.65;7.75;;;1.50;99.90;;;;;;5084342;28;20093;-76
2022/01/10 02:04:01;;;;;;;16.10;6.80;;;1.60;99.90;;;;;;5088810;28;20036;-76
2022/01/10 02:06:27;;;;;;;30.70;7.68;;;1.60;99.90;;;;;;5081021;28;20472;-76
2022/01/10 02:08:52;;;;;;;19.85;7.10;;;1.60;99.90;;;;;;5082761;28;20088;-75
2022/01/10 02:11:19;;;;;;;22.60;8.30;;;1.60;99.90;;;;;;5084503;28;20035;-76
2022/01/10 02:13:45;;;;;;;20.95;8.43;;;1.70;99.90;;;;;;5087264;28;20064;-76
2022/01/10 02:16:16;;;;;;;22.02;7.78;;;1.60;99.90;;;;;;5086861;28;20075;-76
2022/01/10 02:18:42;;;;;;;20.02;8.27;;;1.60;99.90;;;;;;5089158;28;20071;-76
2022/01/10 02:21:09;;;;;;;27.92;9.38;;;1.60;99.90;;;;;;5085896;28;20474;-76
2022/01/10 02:23:37;;;;;;;23.90;9.23;;;1.60;99.90;;;;;;5084775;28;20067;-76
2022/01/10 02:26:03;;;;;;;22.85;8.73;;;1.60;99.90;;;;;;5083412;28;20044;-76
2022/01/10 02:28:29;;;;;;;29.20;9.20;;;1.60;99.90;;;;;;5078649;28;20051;-76
2022/01/10 02:30:57;;;;;;;25.35;9.00;;;1.60;99.90;;;;;;5087981;28;20036;-76
2022/01/10 02:33:24;;;;;;;27.35;9.68;;;1.50;99.90;;;;;;5087013;28;20039;-75
2022/01/10 02:35:55;;;;;;;20.65;8.90;;;1.60;99.90;;;;;;5085610;28;20051;-75
2022/01/10 02:38:20;;;;;;;32.78;10.73;;;1.50;99.90;;;;;;5084447;28;20055;-76
2022/01/10 02:40:48;;;;;;;24.67;9.82;;;1.60;99.90;;;;;;5088162;28;20028;-76
2022/01/10 02:43:14;;;;;;;21.85;9.32;;;1.60;99.90;;;;;;5073152;28;20059;-75
2022/01/10 02:45:39;;;;;;;27.67;10.52;;;1.60;99.90;;;;;;5083272;28;20075;-76
2022/01/10 02:48:05;;;;;;;22.63;10.77;;;1.50;99.90;;;;;;5087638;28;20070;-76
2022/01/10 02:50:31;;;;;;;26.65;9.55;;;1.60;99.90;;;;;;5087472;28;20055;-76
2022/01/10 02:52:56;;;;;;;25.42;11.55;;;1.50;99.90;;;;;;5083064;28;20040;-76
2022/01/10 02:55:22;;;;;;;24.90;9.38;;;1.50;99.90;;;;;;5081751;28;20036;-75
2022/01/10 02:57:50;;;;;;;22.73;9.70;;;1.50;99.90;;;;;;5070125;28;20126;-75
2022/01/10 03:00:22;;;;;;;18.88;9.38;;;1.50;99.90;;;;;;5087443;28;20410;-76
2022/01/10 03:02:50;;;;;;;26.70;10.35;;;1.50;99.90;;;;;;5114732;27;20036;-75
2022/01/10 03:05:17;;;;;;;20.55;9.88;;;1.50;99.90;;;;;;5084004;28;20043;-75
2022/01/10 03:07:43;;;;;;;20.83;9.77;;;1.50;99.90;;;;;;5087459;28;20047;-75
2022/01/10 03:10:09;;;;;;;25.77;10.35;;;1.40;99.90;;;;;;5083421;28;20157;-75
2022/01/10 03:12:35;;;;;;;24.10;11.10;;;1.40;99.90;;;;;;5086780;28;20474;-75
2022/01/10 03:15:07;;;;;;;26.10;11.45;;;1.40;99.90;;;;;;5082312;28;20759;-75
2022/01/10 03:17:33;;;;;;;28.52;11.20;;;1.30;99.90;;;;;;5087094;28;20405;-75
2022/01/10 03:19:59;;;;;;;33.55;11.25;;;1.40;99.90;;;;;;5085880;28;20024;-75
2022/01/10 03:22:26;;;;;;;30.13;12.40;;;1.40;99.90;;;;;;5084111;28;20378;-75
2022/01/10 03:24:53;;;;;;;26.85;11.88;;;1.40;99.90;;;;;;5083879;28;20047;-75
2022/01/10 03:27:19;;;;;;;34.22;12.52;;;1.30;99.90;;;;;;5082316;28;20119;-75
2022/01/10 03:29:45;;;;;;;30.65;12.80;;;1.40;99.90;;;;;;5067572;28;20118;-75
2022/01/10 03:32:11;;;;;;;23.73;11.52;;;1.30;99.90;;;;;;5085409;28;20044;-75
2022/01/10 03:34:37;;;;;;;26.33;11.38;;;1.30;99.90;;;;;;5087657;28;20068;-75
2022/01/10 03:37:04;;;;;;;26.75;10.95;;;1.30;99.90;;;;;;5083777;28;20490;-75
2022/01/10 03:39:29;;;;;;;25.70;13.10;;;1.40;99.90;;;;;;5088743;28;20398;-75
2022/01/10 03:41:55;;;;;;;29.80;12.80;;;1.30;99.90;;;;;;5114176;27;20051;-76
2022/01/10 03:44:21;;;;;;;30.95;11.77;;;1.30;99.90;;;;;;5079379;28;20044;-75
2022/01/10 03:46:48;;;;;;;27.00;11.32;;;1.20;99.90;;;;;;5080460;28;20056;-75
2022/01/10 03:49:14;;;;;;;27.35;11.80;;;1.20;99.90;;;;;;5078196;28;20481;-75
2022/01/10 03:51:39;;;;;;;24.92;11.68;;;1.10;99.90;;;;;;5078087;28;20135;-76
2022/01/10 03:54:05;;;;;;;24.63;11.30;;;1.10;99.90;;;;;;5078687;28;20042;-75
2022/01/10 03:56:34;;;;;;;20.10;10.07;;;1.10;99.90;;;;;;5080005;28;20058;-75
2022/01/10 03:59:00;;;;;;;24.48;10.15;;;0.90;99.90;;;;;;5077415;28;20127;-76
2022/01/10 04:01:26;;;;;;;26.00;12.30;;;1.00;99.90;;;;;;5077994;28;20077;-75
2022/01/10 04:03:52;;;;;;;26.73;10.70;;;1.00;99.90;;;;;;5080939;28;20059;-75
2022/01/10 04:06:18;;;;;;;18.92;11.45;;;0.90;99.90;;;;;;5112783;27;20036;-75
2022/01/10 04:08:44;;;;;;;24.83;12.68;;;1.00;99.90;;;;;;5080078;28;20050;-75
2022/01/10 04:11:10;;;;;;;25.05;13.32;;;0.90;99.90;;;;;;5079351;28;20040;-75
2022/01/10 04:13:35;;;;;;;29.33;13.40;;;1.00;99.90;;;;;;5078440;28;20039;-76
2022/01/10 04:16:02;;;;;;;26.75;14.02;;;1.00;99.90;;;;;;5081735;28;20036;-75
2022/01/10 04:18:27;;;;;;;24.83;12.57;;;1.00;99.90;;;;;;5077913;28;20076;-75
2022/01/10 04:20:53;;;;;;;28.50;13.85;;;1.00;99.90;;;;;;5082322;28;20082;-75
2022/01/10 04:23:19;;;;;;;32.08;13.60;;;1.00;99.90;;;;;;5109116;27;20167;-74
2022/01/10 04:25:45;;;;;;;27.88;13.45;;;1.00;99.90;;;;;;5074846;28;20044;-75
2022/01/10 04:28:11;;;;;;;31.83;14.65;;;0.90;99.90;;;;;;5078295;28;20042;-75
2022/01/10 04:30:37;;;;;;;29.13;16.33;;;1.00;99.90;;;;;;5075679;28;20071;-75
2022/01/10 04:33:04;;;;;;;29.65;15.93;;;1.00;99.90;;;;;;5111086;27;20078;-75
2022/01/10 04:35:30;;;;;;;33.15;16.42;;;1.00;99.90;;;;;;5081617;28;20576;-75
2022/01/10 04:37:56;;;;;;;31.80;15.55;;;1.00;99.90;;;;;;5077147;28;20040;-75
2022/01/10 04:40:24;;;;;;;32.00;15.25;;;1.10;99.90;;;;;;5077376;28;20051;-75
2022/01/10 04:42:50;;;;;;;30.45;15.85;;;0.90;99.90;;;;;;5077686;28;20147;-75
2022/01/10 04:45:16;;;;;;;31.92;15.75;;;1.00;99.90;;;;;;5076186;28;20037;-75
2022/01/10 04:47:42;;;;;;;36.55;16.65;;;1.00;99.90;;;;;;5082092;28;20040;-75
2022/01/10 04:50:54;;;;;;;33.60;16.55;;;1.00;99.90;;;;;;5076896;28;20032;-75
2022/01/10 04:52:54;;;;;;;;;;;1.00;99.90;;;;;;5079467;28;20060;-75
2022/01/10 04:55:20;;;;;;;30.87;15.97;;;1.00;99.90;;;;;;5080182;28;19923;-74
2022/01/10 04:57:46;;;;;;;37.85;17.05;;;1.00;99.90;;;;;;5079085;28;20036;-74
2022/01/10 05:00:14;;;;;;;26.00;16.23;;;1.00;99.90;;;;;;5079899;28;20039;-74
2022/01/10 05:02:43;;;;;;;32.95;16.42;;;0.90;99.90;;;;;;5074900;28;20540;-74
2022/01/10 05:05:08;;;;;;;36.40;17.17;;;0.90;99.90;;;;;;5107896;27;20040;-74
2022/01/10 05:07:34;;;;;;;29.15;16.70;;;1.00;99.90;;;;;;5076824;28;20114;-74
2022/01/10 05:10:00;;;;;;;29.52;15.98;;;0.90;99.90;;;;;;5078960;28;20040;-74
2022/01/10 05:12:27;;;;;;;35.97;16.02;;;0.90;99.90;;;;;;5084713;28;20052;-74
2022/01/10 05:14:53;;;;;;;33.97;16.50;;;1.10;99.90;;;;;;5081401;28;20056;-74
2022/01/10 05:17:21;;;;;;;34.35;16.23;;;0.90;99.90;;;;;;5078113;28;20063;-74
2022/01/10 05:19:46;;;;;;;29.70;16.35;;;0.90;99.90;;;;;;5077357;28;20052;-74
2022/01/10 05:22:12;;;;;;;34.63;16.13;;;0.90;99.90;;;;;;5112061;27;20604;-74
2022/01/10 05:24:38;;;;;;;23.88;14.43;;;0.80;99.90;;;;;;5078258;28;20036;-74
2022/01/10 05:27:04;;;;;;;29.67;15.38;;;0.80;99.90;;;;;;5079904;28;20090;-74
2022/01/10 05:29:30;;;;;;;28.15;15.93;;;0.80;99.90;;;;;;5083174;28;20135;-74
2022/01/10 05:31:56;;;;;;;28.23;15.57;;;0.90;99.90;;;;;;5085295;28;20127;-74
2022/01/10 05:34:22;;;;;;;31.98;16.35;;;0.80;99.90;;;;;;5088603;28;20033;-74
2022/01/10 05:36:47;;;;;;;34.90;17.25;;;0.80;99.90;;;;;;5086424;28;20166;-74
2022/01/10 05:39:13;;;;;;;34.28;17.60;;;0.80;99.90;;;;;;5089086;28;20429;-74
2022/01/10 05:41:39;;;;;;;32.60;16.15;;;0.80;99.90;;;;;;5081344;28;20047;-74
2022/01/10 05:44:05;;;;;;;35.72;17.40;;;0.80;99.90;;;;;;5082013;28;20118;-74
2022/01/10 05:46:31;;;;;;;32.85;18.15;;;0.80;99.90;;;;;;5078163;28;20056;-74
2022/01/10 05:49:01;;;;;;;31.20;15.07;;;0.80;99.90;;;;;;5117846;27;20171;-74
2022/01/10 05:51:29;;;;;;;39.45;17.63;;;0.80;99.90;;;;;;5093118;28;20071;-74
2022/01/10 05:53:55;;;;;;;30.23;16.80;;;0.70;99.90;;;;;;5085711;28;20044;-74
2022/01/10 05:56:21;;;;;;;29.98;15.45;;;0.90;99.90;;;;;;5088170;28;20096;-74
2022/01/10 05:58:46;;;;;;;34.45;14.93;;;0.70;99.90;;;;;;5087435;28;20045;-74
2022/01/10 06:01:12;;;;;;;30.08;15.63;;;0.50;99.90;;;;;;5087874;28;20040;-74
2022/01/10 06:03:38;;;;;;;39.60;16.02;;;0.60;99.90;;;;;;5088028;28;20040;-74
2022/01/10 06:06:04;;;;;;;33.55;16.55;;;0.50;99.90;;;;;;5086850;28;20041;-74
2022/01/10 06:08:30;;;;;;;35.05;18.33;;;0.60;99.90;;;;;;5087917;28;20062;-74
2022/01/10 06:10:56;;;;;;;26.48;16.27;;;0.80;99.90;;;;;;5082191;28;20036;-74
2022/01/10 06:13:21;;;;;;;30.13;18.48;;;0.50;99.90;;;;;;5080774;28;20105;-74
2022/01/10 06:15:47;;;;;;;29.60;18.27;;;0.80;99.90;;;;;;5078770;28;20453;-74
2022/01/10 06:18:13;;;;;;;22.67;16.98;;;0.70;99.90;;;;;;5084038;28;20055;-74
2022/01/10 06:20:39;;;;;;;31.00;17.52;;;0.70;99.90;;;;;;5079524;28;20073;-74
2022/01/10 06:23:05;;;;;;;25.23;17.05;;;0.60;99.90;;;;;;5092307;28;20024;-75
2022/01/10 06:25:31;;;;;;;32.15;17.80;;;0.60;99.90;;;;;;5091134;28;20029;-74
2022/01/10 06:27:57;;;;;;;35.72;17.73;;;0.60;99.90;;;;;;5091020;28;20089;-74
2022/01/10 06:30:24;;;;;;;30.02;16.17;;;0.60;99.90;;;;;;5082378;28;20086;-74
2022/01/10 06:32:49;;;;;;;32.88;17.27;;;0.60;99.90;;;;;;5082343;28;20155;-74
2022/01/10 06:35:15;;;;;;;31.17;16.40;;;0.60;99.90;;;;;;5083783;28;20138;-74
2022/01/10 06:37:41;;;;;;;32.15;16.63;;;0.60;99.90;;;;;;5080962;28;20040;-74
2022/01/10 06:40:08;;;;;;;28.38;16.77;;;0.50;99.90;;;;;;5080975;28;20063;-74
2022/01/10 06:42:34;;;;;;;29.67;16.73;;;0.50;99.90;;;;;;5080906;28;20044;-74
2022/01/10 06:45:00;;;;;;;27.52;15.27;;;0.50;99.90;;;;;;5083272;28;20082;-74
2022/01/10 06:47:26;;;;;;;28.15;15.23;;;0.50;99.90;;;;;;5088652;28;20509;-74
2022/01/10 06:49:51;;;;;;;22.73;15.68;;;0.40;99.90;;;;;;5082736;28;20044;-74
2022/01/10 06:52:17;;;;;;;26.00;16.75;;;0.30;99.90;;;;;;5082743;28;20067;-74
2022/01/10 06:54:44;;;;;;;24.20;14.95;;;0.30;99.90;;;;;;5080068;28;20062;-74
2022/01/10 06:57:10;;;;;;;29.42;15.48;;;0.20;99.90;;;;;;5088274;28;20043;-74
2022/01/10 06:59:35;;;;;;;29.67;14.93;;;0.20;99.90;;;;;;5088843;28;20043;-74
2022/01/10 07:02:01;;;;;;;27.35;16.13;;;0.30;99.90;;;;;;5091330;28;20082;-74
2022/01/10 07:04:28;;;;;;;25.55;15.65;;;0.20;99.90;;;;;;5093005;28;20040;-74
2022/01/10 07:06:54;;;;;;;28.02;15.73;;;0.20;99.90;;;;;;5087800;28;20043;-74
2022/01/10 07:09:20;;;;;;;29.55;14.73;;;0.30;99.90;;;;;;5092036;28;20127;-74
2022/01/10 07:11:46;;;;;;;20.35;14.00;;;0.30;99.90;;;;;;5088609;28;20451;-74
2022/01/10 07:14:13;;;;;;;24.17;14.02;;;0.20;99.90;;;;;;5117827;27;20605;-74
2022/01/10 07:16:40;;;;;;;25.33;13.25;;;0.10;99.90;;;;;;5084781;28;20387;-75
2022/01/10 07:19:06;;;;;;;18.48;12.70;;;0.20;99.90;;;;;;5078775;28;20451;-74
2022/01/10 07:21:33;;;;;;;21.90;13.55;;;0.20;99.90;;;;;;5082026;28;20499;-74
2022/01/10 07:23:59;;;;;;;22.70;13.38;;;0.20;99.90;;;;;;5079377;28;20056;-74
2022/01/10 07:26:25;;;;;;;24.98;15.18;;;0.20;99.90;;;;;;5078809;28;20570;-74
2022/01/10 07:28:51;;;;;;;22.63;14.48;;;0.20;99.90;;;;;;5078158;28;20048;-74
2022/01/10 07:31:16;;;;;;;26.17;14.10;;;0.10;99.90;;;;;;5079287;28;20387;-74
2022/01/10 07:33:43;;;;;;;20.45;13.05;;;0.10;99.90;;;;;;5113604;27;20103;-75
2022/01/10 07:36:09;;;;;;;28.27;16.17;;;0.40;99.90;;;;;;5078327;28;20097;-75
2022/01/10 07:38:37;;;;;;;25.17;15.43;;;0.20;99.90;;;;;;5080870;28;20470;-75
2022/01/10 07:41:05;;;;;;;20.73;14.50;;;0.30;99.90;;;;;;5083514;28;20578;-75
2022/01/10 07:43:30;;;;;;;31.45;17.33;;;0.20;99.90;;;;;;5080471;28;20040;-75
2022/01/10 07:45:56;;;;;;;22.95;14.40;;;0.20;99.90;;;;;;5078240;28;20060;-75
2022/01/10 07:48:22;;;;;;;22.27;15.93;;;0.20;99.90;;;;;;5079991;28;20131;-75
2022/01/10 07:50:48;;;;;;;24.55;15.50;;;0.20;99.90;;;;;;5078514;28;20044;-75
2022/01/10 07:53:13;;;;;;;26.17;16.20;;;0.20;99.90;;;;;;5111131;27;20050;-75
2022/01/10 07:55:39;;;;;;;25.83;16.52;;;0.20;99.90;;;;;;5075594;28;20044;-75
2022/01/10 07:58:05;;;;;;;31.02;16.17;;;0.20;99.90;;;;;;5078073;28;20685;-75
2022/01/10 08:00:30;;;;;;;28.13;15.57;;;0.20;99.90;;;;;;5081684;28;20036;-75
2022/01/10 08:02:56;;;;;;;26.45;15.65;;;0.20;99.90;;;;;;5082418;28;20032;-75
2022/01/10 08:05:22;;;;;;;28.30;14.07;;;0.20;99.90;;;;;;5079298;28;20033;-75
2022/01/10 08:07:47;;;;;;;27.50;16.45;;;0.20;99.90;;;;;;5078635;28;20126;-75
2022/01/10 08:10:13;;;;;;;29.15;16.35;;;0.40;99.90;;;;;;5080043;28;20135;-75
2022/01/10 08:12:39;;;;;;;27.63;13.98;;;0.20;99.90;;;;;;5082875;28;20877;-74
2022/01/10 08:15:06;;;;;;;27.38;15.88;;;0.30;99.90;;;;;;5077660;28;20067;-75
2022/01/10 08:17:31;;;;;;;22.88;14.00;;;0.10;99.90;;;;;;5076936;28;20044;-74
2022/01/10 08:19:57;;;;;;;24.65;14.25;;;0.20;99.90;;;;;;5076649;28;20487;-74
2022/01/10 08:22:23;;;;;;;20.30;14.48;;;0.30;99.90;;;;;;5084922;28;20549;-75
2022/01/10 08:24:50;;;;;;;25.63;14.15;;;0.20;99.90;;;;;;5078572;28;20072;-75
2022/01/10 08:27:15;;;;;;;29.10;14.35;;;0.20;99.90;;;;;;5076083;28;20083;-75
2022/01/10 08:29:42;;;;;;;32.25;15.38;;;0.10;99.90;;;;;;5111627;27;20491;-75
2022/01/10 08:32:08;;;;;;;28.00;15.45;;;0.10;99.90;;;;;;5079786;28;20036;-75
2022/01/10 08:34:34;;;;;;;23.80;14.77;;;0.10;99.90;;;;;;5080258;28;20501;-75
2022/01/10 08:37:00;;;;;;;30.48;17.05;;;0.10;99.90;;;;;;5078612;28;20051;-75
2022/01/10 08:39:26;;;;;;;25.92;15.32;;;0.10;99.90;;;;;;5081000;28;20059;-75
2022/01/10 08:41:51;;;;;;;30.00;15.65;;;0.10;99.90;;;;;;5078605;28;20043;-75
2022/01/10 08:44:17;;;;;;;26.17;15.43;;;0.10;99.90;;;;;;5079271;28;20073;-75
2022/01/10 08:46:44;;;;;;;25.95;15.90;;;0.20;99.90;;;;;;5080559;28;20037;-75
2022/01/10 08:49:12;;;;;;;27.95;16.25;;;0.50;99.90;;;;;;5082783;28;20040;-75
2022/01/10 08:51:39;;;;;;;39.85;20.02;;;0.30;99.90;;;;;;5076110;28;20163;-75
2022/01/10 08:54:05;;;;;;;29.85;19.13;;;0.40;99.90;;;;;;5074975;28;20119;-75
2022/01/10 08:56:32;;;;;;;32.83;19.02;;;0.40;99.90;;;;;;5077723;28;20044;-75
2022/01/10 08:58:59;;;;;;;37.45;18.73;;;0.50;99.90;;;;;;5111741;27;20032;-75
2022/01/10 09:01:24;;;;;;;36.33;20.60;;;-0.20;99.90;;;;;;5076986;28;20495;-74
2022/01/10 09:03:50;;;;;;;39.42;19.48;;;0.60;99.90;;;;;;5077787;28;20043;-75
2022/01/10 09:06:16;;;;;;;27.40;17.65;;;0.60;99.90;;;;;;5081732;28;20067;-75
2022/01/10 09:08:44;;;;;;;28.95;18.10;;;0.70;99.90;;;;;;5095952;28;20554;-75
2022/01/10 09:11:10;;;;;;;27.42;17.25;;;0.80;99.90;;;;;;5115256;27;20055;-75
2022/01/10 09:13:36;;;;;;;26.58;16.88;;;0.80;99.90;;;;;;5086066;28;20037;-75
2022/01/10 09:16:02;;;;;;;25.70;17.13;;;0.90;99.90;;;;;;5083530;28;20069;-74
2022/01/10 09:18:28;;;;;;;30.55;17.45;;;1.00;99.90;;;;;;5079245;28;20048;-75
2022/01/10 09:20:55;;;;;;;23.58;16.65;;;1.00;99.90;;;;;;5080269;28;20074;-75
2022/01/10 09:23:22;;;;;;;29.70;18.42;;;1.00;99.90;;;;;;5082093;28;20040;-75
2022/01/10 09:25:49;;;;;;;29.20;18.90;;;1.10;99.90;;;;;;5082025;28;20105;-75
2022/01/10 09:28:15;;;;;;;27.85;19.08;;;1.10;99.90;;;;;;5086934;28;20043;-75
2022/01/10 09:30:41;;;;;;;33.80;19.60;;;1.10;99.90;;;;;;5080675;28;20066;-75
2022/01/10 09:33:07;;;;;;;24.77;18.35;;;1.20;99.90;;;;;;5081721;28;20047;-75
2022/01/10 09:35:33;;;;;;;25.52;17.23;;;1.20;99.90;;;;;;5117751;27;20040;-75
2022/01/10 09:37:59;;;;;;;23.73;18.30;;;1.30;99.90;;;;;;5082456;28;20521;-75
2022/01/10 09:40:25;;;;;;;25.73;17.65;;;1.30;99.90;;;;;;5081605;28;20048;-75
2022/01/10 09:42:51;;;;;;;27.52;18.15;;;1.40;99.90;;;;;;5081455;28;20044;-74
2022/01/10 09:45:17;;;;;;;30.48;19.08;;;1.40;99.90;;;;;;5079590;28;20042;-75
2022/01/10 09:47:43;;;;;;;33.53;20.35;;;1.40;99.90;;;;;;5083997;28;20086;-75
2022/01/10 09:50:11;;;;;;;38.85;23.00;;;1.40;99.90;;;;;;5083429;28;20391;-74
2022/01/10 09:52:39;;;;;;;37.53;25.10;;;1.50;99.90;;;;;;5082560;28;20167;-74
2022/01/10 09:55:06;;;;;;;42.40;26.83;;;1.60;99.90;;;;;;5082031;28;20420;-75
2022/01/10 09:57:31;;;;;;;42.10;25.80;;;1.50;99.90;;;;;;5084701;28;20063;-75
2022/01/10 09:59:57;;;;;;;38.10;26.13;;;1.60;99.90;;;;;;5082488;28;20139;-75
2022/01/10 10:02:33;;;;;;;38.33;25.27;;;1.60;99.90;;;;;;5079288;28;20379;-75
2022/01/10 10:05:04;;;;;;;;;;;1.70;99.90;;;;;;5080696;28;20081;-75
2022/01/10 10:07:30;;;;;;;31.92;22.90;;;1.70;99.90;;;;;;5111416;27;19921;-75
2022/01/10 10:09:59;;;;;;;37.97;23.92;;;1.80;99.90;;;;;;5081331;28;20102;-73
2022/01/10 10:12:28;;;;;;;33.42;22.33;;;1.80;99.90;;;;;;5082776;28;20097;-75
2022/01/10 10:14:54;;;;;;;32.33;22.00;;;1.90;99.90;;;;;;5078017;28;20500;-74
2022/01/10 10:17:22;;;;;;;30.90;22.67;;;1.90;99.90;;;;;;5078750;28;20119;-74
2022/01/10 10:19:49;;;;;;;30.60;21.23;;;2.00;99.90;;;;;;5081034;28;20421;-75
2022/01/10 10:22:15;;;;;;;30.58;19.20;;;2.30;99.90;;;;;;5116955;27;20370;-74
2022/01/10 10:24:42;;;;;;;30.50;18.17;;;2.70;99.90;;;;;;5084161;28;20043;-75
2022/01/10 10:27:09;;;;;;;23.10;16.00;;;3.20;99.90;;;;;;5116053;27;20595;-74
2022/01/10 10:29:38;;;;;;;20.58;15.82;;;3.40;99.90;;;;;;5079457;28;20080;-75
2022/01/10 10:32:04;;;;;;;22.00;14.90;;;3.60;99.90;;;;;;5113375;27;20040;-75
2022/01/10 10:34:33;;;;;;;22.05;15.50;;;3.70;99.90;;;;;;5077999;28;20048;-75
2022/01/10 10:37:02;;;;;;;18.73;14.27;;;3.70;99.90;;;;;;5079884;28;20080;-75
2022/01/10 10:39:28;;;;;;;20.70;14.43;;;3.90;99.90;;;;;;5080346;28;20083;-75
2022/01/10 10:41:59;;;;;;;19.08;12.70;;;4.10;99.90;;;;;;5083348;28;20081;-75
2022/01/10 10:44:24;;;;;;;19.92;13.80;;;4.20;99.90;;;;;;5079883;28;20134;-75
2022/01/10 10:46:51;;;;;;;17.73;13.15;;;4.60;99.90;;;;;;5096166;27;20139;-75
2022/01/10 10:49:21;;;;;;;17.30;12.82;;;4.50;99.90;;;;;;5080516;28;20028;-75
2022/01/10 10:51:51;;;;;;;18.17;12.82;;;4.50;99.90;;;;;;5079307;28;20044;-75
2022/01/10 10:54:18;;;;;;;20.63;14.48;;;4.60;99.90;;;;;;5082170;28;20435;-75
2022/01/10 10:56:45;;;;;;;20.30;13.82;;;4.60;99.90;;;;;;5076232;28;20079;-75
2022/01/10 10:59:12;;;;;;;20.35;13.77;;;4.70;99.90;;;;;;5114059;27;20045;-76
2022/01/10 11:01:40;;;;;;;19.90;13.75;;;4.70;99.90;;;;;;5082811;28;20081;-76
2022/01/10 11:04:09;;;;;;;17.42;13.23;;;4.80;99.90;;;;;;5108888;27;20036;-75
2022/01/10 11:06:35;;;;;;;18.02;13.57;;;5.10;99.90;;;;;;5083716;28;20043;-75
2022/01/10 11:09:12;;;;;;;22.15;12.35;;;5.20;99.90;;;;;;5076910;28;20123;-75
2022/01/10 11:11:40;;;;;;;15.95;11.95;;;5.50;99.90;;;;;;5078767;28;20085;-76
2022/01/10 11:14:09;;;;;;;21.25;12.88;;;5.60;99.90;;;;;;5078147;28;20044;-75
2022/01/10 11:16:37;;;;;;;20.15;12.23;;;5.60;99.90;;;;;;5079474;28;20040;-76
2022/01/10 11:19:14;;;;;;;19.50;12.27;;;5.80;99.90;;;;;;5080578;28;20041;-76
2022/01/10 11:21:40;;;;;;;15.15;11.93;;;5.80;99.90;;;;;;5081840;28;20035;-76
2022/01/10 11:24:06;;;;;;;22.73;12.05;;;5.90;99.90;;;;;;5079962;28;20059;-76
2022/01/10 11:26:40;;;;;;;17.45;12.00;;;6.10;99.90;;;;;;5066747;28;20377;-76
2022/01/10 11:29:09;;;;;;;18.42;11.60;;;6.40;99.90;;;;;;5079320;28;20513;-76
2022/01/10 11:31:36;;;;;;;20.05;11.35;;;6.70;99.90;;;;;;5079994;28;20047;-76
2022/01/10 11:34:02;;;;;;;20.60;12.00;;;6.90;99.90;;;;;;5109590;27;20060;-76
2022/01/10 11:36:29;;;;;;;17.55;11.27;;;7.10;99.90;;;;;;5074408;28;20037;-76
2022/01/10 11:39:09;;;;;;;21.52;10.88;;;7.40;99.90;;;;;;5074038;28;20040;-76
2022/01/10 11:41:34;;;;;;;15.50;11.10;;;7.80;99.90;;;;;;5078520;28;20064;-76
2022/01/10 11:44:08;;;;;;;17.35;10.60;;;7.80;99.90;;;;;;5077546;28;20074;-75
2022/01/10 11:46:39;;;;;;;15.60;10.90;;;8.00;99.90;;;;;;5074582;28;20032;-76
2022/01/10 11:49:23;;;;;;;22.33;10.95;;;8.20;99.90;;;;;;5077052;28;20063;-75
2022/01/10 11:51:51;;;;;;;17.35;11.10;;;8.20;99.90;;;;;;5093430;28;20040;-75
2022/01/10 11:54:18;;;;;;;16.45;10.30;;;8.10;99.90;;;;;;5093406;28;20372;-75
2022/01/10 11:56:49;;;;;;;15.07;10.43;;;8.00;99.90;;;;;;5074669;28;20091;-75
2022/01/10 11:59:29;;;;;;;15.73;11.95;;;7.90;99.90;;;;;;5075219;28;20048;-75
2022/01/10 12:02:04;;;;;;;19.05;11.40;;;7.70;99.90;;;;;;5077902;28;20042;-75
2022/01/10 12:04:40;;;;;;;20.10;11.23;;;7.60;99.90;;;;;;5075177;28;20036;-75
2022/01/10 12:07:06;;;;;;;;;;;7.60;99.90;;;;;;5078195;28;20032;-75
2022/01/10 12:09:34;;;;;;;17.70;10.75;;;7.40;99.90;;;;;;5079993;28;19923;-75
2022/01/10 12:12:01;;;;;;;20.35;11.10;;;7.50;99.90;;;;;;5063039;28;20097;-75
2022/01/10 12:14:27;;;;;;;21.30;13.40;;;7.60;99.90;;;;;;5106409;27;20044;-75
2022/01/10 12:16:54;;;;;;;22.98;12.10;;;7.50;99.90;;;;;;5075238;28;20048;-75
2022/01/10 12:19:20;;;;;;;18.10;12.18;;;7.60;99.90;;;;;;5080370;28;20037;-75
2022/01/10 12:21:47;;;;;;;20.13;12.63;;;7.50;99.90;;;;;;5109780;27;20398;-75
2022/01/10 12:24:13;;;;;;;22.55;12.73;;;7.50;99.90;;;;;;5079896;28;20043;-75
2022/01/10 12:26:41;;;;;;;17.23;12.02;;;7.40;99.90;;;;;;5079584;28;20040;-75
2022/01/10 12:29:09;;;;;;;19.80;12.88;;;7.40;99.90;;;;;;5074816;28;20051;-75
2022/01/10 12:31:37;;;;;;;21.83;14.30;;;7.40;99.90;;;;;;5079048;28;20096;-75
2022/01/10 12:34:04;;;;;;;18.25;12.50;;;7.30;99.90;;;;;;5078558;28;20036;-75
2022/01/10 12:36:31;;;;;;;20.30;12.93;;;7.30;99.90;;;;;;5076335;28;20054;-74
2022/01/10 12:39:00;;;;;;;18.70;12.68;;;7.30;99.90;;;;;;5078843;28;20051;-75
2022/01/10 12:41:26;;;;;;;20.73;14.05;;;7.20;99.90;;;;;;5084101;28;20044;-75